createdAt,value
2022-07-28T00:01:59.820Z,44.76
2022-07-28T00:04:29.804Z,44.74
2022-07-28T00:06:59.187Z,44.97
2022-07-28T00:09:30.334Z,44.49
2022-07-28T00:11:59.706Z,44.99
2022-07-28T00:14:31.716Z,45.05
2022-07-28T00:17:01.226Z,45.92
2022-07-28T00:19:30.623Z,45.92
2022-07-28T00:22:00.033Z,46.38
2022-07-28T00:24:29.477Z,46.02
2022-07-28T00:26:58.862Z,45.90
2022-07-28T00:29:49.675Z,45.74
2022-07-28T00:32:20.657Z,46.14
2022-07-28T00:34:53.597Z,46.34
2022-07-28T00:37:23.247Z,46.97
2022-07-28T00:39:52.648Z,46.46
2022-07-28T00:42:22.087Z,46.51
2022-07-28T00:44:54.036Z,46.48
2022-07-28T00:47:23.429Z,46.25
2022-07-28T00:49:53.052Z,46.86
2022-07-28T00:52:22.815Z,47.12
2022-07-28T00:54:52.365Z,47.13
2022-07-28T00:57:21.963Z,47.63
2022-07-28T00:59:53.918Z,47.22
2022-07-28T01:02:23.843Z,46.94
2022-07-28T01:04:53.335Z,47.09
2022-07-28T01:07:29.244Z,47.59
2022-07-28T01:10:01.770Z,46.88
2022-07-28T01:12:36.913Z,46.96
2022-07-28T01:15:11.329Z,47.14
2022-07-28T01:17:42.719Z,47.28
2022-07-28T01:20:14.481Z,47.47
2022-07-28T01:22:45.031Z,48.15
2022-07-28T01:25:19.344Z,48.25
2022-07-28T01:27:55.858Z,48.17
2022-07-28T01:30:31.214Z,48.48
2022-07-28T01:33:02.311Z,47.92
2022-07-28T01:35:35.693Z,47.85
2022-07-28T01:38:07.756Z,47.73
2022-07-28T01:40:38.491Z,47.64
2022-07-28T01:43:09.633Z,48.50
2022-07-28T01:45:46.629Z,48.17
2022-07-28T01:48:17.827Z,48.58
2022-07-28T01:50:49.484Z,48.84
2022-07-28T01:53:19.453Z,48.96
2022-07-28T01:55:49.333Z,48.46
2022-07-28T01:58:21.271Z,48.60
2022-07-28T02:00:54.061Z,49.08
2022-07-28T02:03:24.951Z,49.27
2022-07-28T02:05:56.709Z,48.62
2022-07-28T02:08:27.019Z,49.05
2022-07-28T02:11:10.215Z,48.04
2022-07-28T02:13:41.075Z,47.84
2022-07-28T02:16:14.712Z,47.74
2022-07-28T02:18:44.982Z,47.83
2022-07-28T02:21:15.068Z,47.89
2022-07-28T02:23:46.140Z,47.47
2022-07-28T02:26:16.261Z,47.60
2022-07-28T02:28:51.444Z,47.44
2022-07-28T02:31:27.732Z,47.46
2022-07-28T02:34:01.979Z,47.33
2022-07-28T02:36:34.499Z,47.22
2022-07-28T02:39:05.491Z,47.07
2022-07-28T02:41:36.216Z,46.79
2022-07-28T02:44:12.119Z,47.30
2022-07-28T02:46:46.809Z,47.61
2022-07-28T02:49:19.157Z,46.98
2022-07-28T02:51:49.508Z,46.75
2022-07-28T02:54:20.312Z,47.51
2022-07-28T02:56:53.286Z,47.61
2022-07-28T02:59:24.164Z,47.98
2022-07-28T03:01:56.622Z,48.06
2022-07-28T03:04:39.567Z,48.41
2022-07-28T03:07:09.078Z,48.24
2022-07-28T03:09:41.788Z,48.29
2022-07-28T03:12:11.678Z,48.76
2022-07-28T03:14:41.775Z,48.88
2022-07-28T03:17:13.952Z,48.50
2022-07-28T03:19:43.347Z,48.34
2022-07-28T03:22:12.729Z,48.27
2022-07-28T03:24:45.033Z,48.58
2022-07-28T03:27:18.002Z,49.09
2022-07-28T03:29:49.641Z,49.48
2022-07-28T03:32:22.955Z,49.29
2022-07-28T03:34:53.000Z,49.73
2022-07-28T03:37:26.660Z,49.55
2022-07-28T03:39:57.593Z,49.34
2022-07-28T03:42:27.658Z,48.96
2022-07-28T03:44:57.421Z,49.46
2022-07-28T03:47:29.390Z,49.43
2022-07-28T03:49:58.753Z,49.64
2022-07-28T03:52:28.105Z,49.95
2022-07-28T03:54:57.490Z,49.71
2022-07-28T03:57:26.970Z,49.52
2022-07-28T03:59:56.342Z,49.39
2022-07-28T04:02:25.739Z,49.64
2022-07-28T04:04:57.751Z,49.76
2022-07-28T04:07:27.079Z,50.00
2022-07-28T04:09:56.729Z,49.46
2022-07-28T04:12:26.096Z,50.10
2022-07-28T04:14:55.527Z,49.55
2022-07-28T04:17:24.905Z,49.55
2022-07-28T04:19:56.846Z,49.69
2022-07-28T04:22:26.211Z,49.90
2022-07-28T04:24:55.573Z,49.56
2022-07-28T04:27:24.948Z,49.18
2022-07-28T04:29:54.355Z,49.54
2022-07-28T04:32:23.782Z,49.46
2022-07-28T04:34:53.147Z,48.97
2022-07-28T04:37:25.077Z,48.82
2022-07-28T04:39:54.876Z,48.25
2022-07-28T04:42:25.562Z,48.17
2022-07-28T04:44:54.936Z,48.53
2022-07-28T04:47:24.684Z,48.15
2022-07-28T04:49:54.449Z,47.96
2022-07-28T04:52:27.171Z,47.97
2022-07-28T04:54:56.749Z,47.81
2022-07-28T04:57:28.096Z,47.90
2022-07-28T04:59:57.471Z,47.13
2022-07-28T05:02:26.921Z,47.31
2022-07-28T05:04:56.551Z,47.11
2022-07-28T05:07:28.613Z,47.47
2022-07-28T05:09:57.941Z,46.93
2022-07-28T05:12:27.307Z,47.34
2022-07-28T05:14:56.708Z,47.22
2022-07-28T05:17:26.080Z,46.93
2022-07-28T05:19:55.532Z,46.67
2022-07-28T05:22:24.916Z,46.11
2022-07-28T05:24:56.910Z,45.78
2022-07-28T05:27:26.327Z,44.99
2022-07-28T05:29:55.689Z,44.76
2022-07-28T05:32:25.068Z,45.77
2022-07-28T05:34:54.537Z,45.35
2022-07-28T05:37:23.989Z,45.29
2022-07-28T05:39:53.375Z,44.93
2022-07-28T05:42:26.637Z,45.04
2022-07-28T05:44:56.007Z,44.09
2022-07-28T05:47:25.357Z,44.31
2022-07-28T05:49:54.730Z,44.09
2022-07-28T05:52:24.112Z,44.40
2022-07-28T05:54:53.434Z,43.90
2022-07-28T05:57:25.410Z,43.84
2022-07-28T05:59:54.741Z,43.40
2022-07-28T06:02:24.144Z,43.36
2022-07-28T06:04:53.569Z,42.66
2022-07-28T06:07:22.931Z,42.75
2022-07-28T06:10:12.791Z,42.88
2022-07-28T06:12:46.386Z,43.14
2022-07-28T06:15:16.209Z,42.88
2022-07-28T06:17:45.906Z,42.21
2022-07-28T06:20:15.627Z,41.93
2022-07-28T06:22:45.741Z,41.82
2022-07-28T06:25:16.576Z,41.64
2022-07-28T06:27:48.925Z,41.93
2022-07-28T06:30:19.239Z,42.34
2022-07-28T06:32:49.132Z,41.57
2022-07-28T06:35:19.050Z,41.73
2022-07-28T06:37:49.581Z,41.98
2022-07-28T06:40:19.869Z,41.27
2022-07-28T06:42:52.324Z,41.40
2022-07-28T06:45:22.944Z,41.65
2022-07-28T06:47:52.595Z,41.52
2022-07-28T06:50:26.351Z,41.49
2022-07-28T06:52:56.407Z,41.86
2022-07-28T06:55:25.980Z,41.44
2022-07-28T06:58:07.088Z,41.89
2022-07-28T07:00:36.515Z,41.36
2022-07-28T07:03:09.561Z,41.20
2022-07-28T07:05:39.262Z,41.36
2022-07-28T07:08:08.753Z,41.11
2022-07-28T07:10:38.272Z,40.74
2022-07-28T07:13:10.257Z,40.97
2022-07-28T07:15:43.421Z,41.12
2022-07-28T07:18:12.798Z,40.68
2022-07-28T07:20:42.178Z,40.74
2022-07-28T07:23:11.553Z,41.10
2022-07-28T07:25:41.087Z,40.84
2022-07-28T07:28:13.037Z,40.71
2022-07-28T07:30:42.345Z,40.63
2022-07-28T07:33:11.809Z,40.84
2022-07-28T07:35:41.179Z,40.71
2022-07-28T07:38:11.676Z,40.76
2022-07-28T07:40:41.059Z,40.82
2022-07-28T07:43:13.034Z,40.45
2022-07-28T07:45:43.361Z,40.33
2022-07-28T07:48:12.856Z,39.95
2022-07-28T07:50:42.232Z,39.55
2022-07-28T07:53:11.619Z,40.25
2022-07-28T07:55:40.925Z,39.84
2022-07-28T07:58:12.849Z,39.70
2022-07-28T08:00:42.192Z,40.01
2022-07-28T08:03:11.866Z,40.00
2022-07-28T08:05:43.488Z,40.31
2022-07-28T08:08:13.211Z,39.86
2022-07-28T08:10:43.052Z,39.70
2022-07-28T08:13:15.383Z,39.55
2022-07-28T08:15:44.997Z,39.11
2022-07-28T08:18:15.007Z,39.33
2022-07-28T08:20:44.385Z,39.65
2022-07-28T08:23:13.987Z,39.82
2022-07-28T08:25:44.445Z,39.73
2022-07-28T08:28:16.493Z,39.75
2022-07-28T08:30:46.007Z,39.12
2022-07-28T08:33:15.430Z,39.92
2022-07-28T08:35:44.749Z,39.60
2022-07-28T08:38:14.095Z,39.12
2022-07-28T08:40:44.806Z,39.72
2022-07-28T08:43:21.761Z,40.27
2022-07-28T08:45:57.761Z,39.23
2022-07-28T08:48:30.052Z,39.13
2022-07-28T08:50:59.656Z,39.17
2022-07-28T08:53:29.464Z,38.72
2022-07-28T08:56:02.393Z,38.34
2022-07-28T08:58:35.751Z,38.44
2022-07-28T09:01:05.782Z,37.79
2022-07-28T09:03:35.223Z,37.40
2022-07-28T09:06:04.933Z,36.64
2022-07-28T09:08:34.319Z,36.83
2022-07-28T09:11:04.053Z,36.86
2022-07-28T09:13:38.320Z,36.65
2022-07-28T09:16:08.491Z,35.86
2022-07-28T09:18:38.055Z,35.52
2022-07-28T09:21:07.455Z,34.72
2022-07-28T09:23:46.293Z,34.90
2022-07-28T09:26:15.762Z,35.06
2022-07-28T09:28:54.992Z,35.27
2022-07-28T09:31:25.651Z,35.75
2022-07-28T09:34:00.445Z,35.70
2022-07-28T09:36:30.151Z,36.00
2022-07-28T09:38:59.640Z,36.04
2022-07-28T09:41:29.078Z,35.88
2022-07-28T09:44:01.074Z,36.27
2022-07-28T09:46:30.719Z,35.93
2022-07-28T09:49:01.314Z,36.05
2022-07-28T09:51:31.902Z,36.03
2022-07-28T09:54:09.488Z,36.38
2022-07-28T09:56:39.214Z,35.19
2022-07-28T09:59:11.596Z,35.49
2022-07-28T10:01:55.105Z,35.55
2022-07-28T10:04:34.791Z,35.59
2022-07-28T10:07:05.646Z,35.87
2022-07-28T10:09:35.235Z,36.01
2022-07-28T10:12:17.256Z,35.36
2022-07-28T10:14:53.100Z,35.20
2022-07-28T10:17:29.619Z,35.52
2022-07-28T10:19:59.641Z,34.96
2022-07-28T10:22:33.277Z,34.96
2022-07-28T10:25:04.418Z,34.29
2022-07-28T10:27:34.765Z,34.60
2022-07-28T10:30:06.144Z,34.34
2022-07-28T10:32:41.502Z,34.26
2022-07-28T10:35:12.749Z,34.07
2022-07-28T10:37:46.339Z,34.98
2022-07-28T10:40:16.336Z,34.60
2022-07-28T10:42:45.871Z,34.39
2022-07-28T10:45:15.567Z,34.29
2022-07-28T10:47:48.061Z,33.73
2022-07-28T10:50:17.890Z,33.95
2022-07-28T10:52:49.838Z,33.48
2022-07-28T10:55:26.107Z,33.08
2022-07-28T10:58:10.738Z,33.13
2022-07-28T11:00:55.563Z,32.55
2022-07-28T11:03:43.876Z,32.77
2022-07-28T11:06:29.297Z,32.43
2022-07-28T11:08:59.339Z,32.36
2022-07-28T11:11:43.727Z,32.25
2022-07-28T11:14:33.839Z,32.46
2022-07-28T11:17:24.033Z,32.70
2022-07-28T11:22:54.488Z,31.77
2022-07-28T11:25:24.196Z,31.73
2022-07-28T11:28:06.893Z,31.71
2022-07-28T11:30:51.858Z,31.59
2022-07-28T11:33:22.632Z,31.43
2022-07-28T11:35:58.991Z,31.06
2022-07-28T11:38:28.814Z,30.92
2022-07-28T11:40:59.096Z,31.31
2022-07-28T11:43:46.144Z,30.90
2022-07-28T11:46:33.416Z,30.76
2022-07-28T11:49:18.453Z,30.57
2022-07-28T11:52:02.992Z,31.23
2022-07-28T11:54:36.943Z,31.03
2022-07-28T11:57:09.781Z,31.16
2022-07-28T11:59:49.868Z,31.17
2022-07-28T12:02:23.597Z,30.79
2022-07-28T12:05:03.812Z,30.66
2022-07-28T12:07:37.994Z,30.90
2022-07-28T12:10:43.941Z,30.99
2022-07-28T12:13:14.788Z,30.99
2022-07-28T12:15:44.210Z,30.67
2022-07-28T12:18:14.506Z,30.70
2022-07-28T12:20:50.077Z,30.55
2022-07-28T12:23:19.628Z,30.86
2022-07-28T12:25:49.822Z,30.92
2022-07-28T12:28:22.718Z,30.54
2022-07-28T12:30:52.181Z,30.49
2022-07-28T12:33:27.596Z,31.02
2022-07-28T12:36:01.086Z,30.89
2022-07-28T12:38:30.861Z,30.77
2022-07-28T12:41:00.748Z,30.25
2022-07-28T12:43:34.323Z,30.59
2022-07-28T12:46:03.783Z,30.71
2022-07-28T12:48:33.360Z,30.44
2022-07-28T12:51:02.707Z,30.54
2022-07-28T12:53:32.099Z,30.37
2022-07-28T12:56:05.471Z,30.49
2022-07-28T22:17:49.890Z,42.62
2022-07-28T22:20:19.288Z,42.76
2022-07-28T22:22:48.628Z,43.34
2022-07-28T22:25:17.989Z,43.27
2022-07-28T22:27:47.378Z,43.80
2022-07-28T22:30:16.748Z,43.36
2022-07-28T22:32:46.103Z,43.52
2022-07-28T22:35:18.229Z,44.12
2022-07-28T22:37:47.758Z,44.40
2022-07-28T22:40:17.158Z,45.09
2022-07-28T22:42:48.356Z,45.09
2022-07-28T22:45:50.187Z,45.67
2022-07-28T22:48:07.775Z,46.36
2022-07-28T22:50:45.232Z,45.91
2022-07-28T22:53:14.617Z,46.62
2022-07-28T22:55:44.006Z,46.52
2022-07-28T22:58:13.390Z,46.49
2022-07-28T23:00:42.953Z,46.48
2022-07-28T23:03:13.418Z,46.24
2022-07-28T23:05:47.877Z,46.37
2022-07-28T23:08:20.050Z,46.38
2022-07-28T23:10:49.416Z,46.43
2022-07-28T23:13:18.772Z,46.11
2022-07-28T23:15:48.245Z,46.26
2022-07-28T23:18:17.583Z,46.15
2022-07-28T23:20:49.647Z,46.23
2022-07-28T23:23:19.012Z,46.14
2022-07-28T23:25:48.417Z,46.33
2022-07-28T23:28:17.876Z,46.17
2022-07-28T23:30:48.319Z,46.51
2022-07-28T23:33:56.334Z,46.06
2022-07-28T23:36:26.060Z,46.41
2022-07-28T23:38:56.898Z,46.95
2022-07-28T23:41:26.880Z,47.62
2022-07-28T23:43:56.323Z,47.23
2022-07-28T23:46:25.738Z,47.77
2022-07-28T23:48:55.468Z,47.98
2022-07-28T23:51:46.644Z,48.24
2022-07-28T23:54:17.218Z,48.18
2022-07-28T23:56:46.853Z,48.17
2022-07-28T23:59:16.447Z,47.83
